Terminal Aerodrome Forecast
Issued by NWS Lake Charles, LA

Home | Current Version | Previous Version | Text Only | Print | Product List | Glossary On
Versions: 1 2 3 4 5 6 7 8 9 10 11 12 13
978
FTUS44 KLCH 121141
TAFAEX
TAF
KAEX 121141Z 1212/1312 VRB03KT P6SM OVC015
     FM121500 VRB05KT P6SM BKN015
     FM121800 28004KT P6SM BKN035
     FM130300 04007KT P6SM SKC=

USA.gov is the U.S. government's official web portal to all federal, state and local government web resources and services.